createdAt,value
2018-11-03T00:00:37.723Z,9.13
2018-11-03T00:01:47.472Z,9.03
2018-11-03T00:02:57.216Z,9.09
2018-11-03T00:04:06.940Z,9.12
2018-11-03T00:05:16.417Z,9.08
2018-11-03T00:06:25.930Z,9.05
2018-11-03T00:07:35.394Z,9.13
2018-11-03T00:08:45.159Z,9.18
2018-11-03T00:09:54.355Z,9.18
2018-11-03T00:11:04.360Z,9.08
2018-11-03T00:12:14.106Z,9.16
2018-11-03T00:13:23.835Z,9.19
2018-11-03T00:14:33.851Z,9.21
2018-11-03T00:15:43.308Z,9.31
2018-11-03T00:16:53.313Z,9.27
2018-11-03T00:18:03.051Z,9.24
2018-11-03T00:19:12.802Z,9.24
2018-11-03T00:20:21.983Z,9.24
2018-11-03T00:21:31.703Z,9.22
2018-11-03T00:22:41.690Z,9.21
2018-11-03T00:23:51.697Z,9.19
2018-11-03T00:25:02.153Z,9.19
2018-11-03T00:26:12.378Z,9.21
2018-11-03T00:27:22.111Z,9.19
2018-11-03T00:28:31.547Z,9.26
2018-11-03T00:29:41.515Z,9.21
2018-11-03T00:30:50.948Z,9.24
2018-11-03T00:32:00.941Z,9.19
2018-11-03T00:33:10.665Z,9.18
2018-11-03T00:34:20.364Z,9.19
2018-11-03T00:35:30.370Z,9.18
2018-11-03T00:36:40.353Z,9.22
2018-11-03T00:37:49.805Z,9.24
2018-11-03T00:38:59.789Z,9.24
2018-11-03T00:40:08.989Z,9.34
2018-11-03T00:41:18.451Z,9.21
2018-11-03T00:42:28.461Z,9.26
2018-11-03T00:43:38.190Z,9.26
2018-11-03T00:44:48.200Z,9.21
2018-11-03T00:45:58.190Z,9.26
2018-11-03T00:47:07.652Z,9.29
2018-11-03T00:48:17.686Z,9.24
2018-11-03T00:49:27.864Z,9.19
2018-11-03T00:50:38.014Z,9.21
2018-11-03T00:51:48.040Z,9.19
2018-11-03T00:52:57.487Z,9.19
2018-11-03T00:54:07.193Z,9.15
2018-11-03T00:55:17.180Z,9.16
2018-11-03T00:56:26.894Z,9.12
2018-11-03T00:57:36.620Z,9.12
2018-11-03T00:58:46.595Z,9.11
2018-11-03T00:59:56.047Z,9.08
2018-11-03T01:01:06.049Z,9.15
2018-11-03T01:02:15.813Z,9.12
2018-11-03T01:03:25.825Z,9.09
2018-11-03T01:04:35.793Z,9.13
2018-11-03T01:05:45.505Z,9.18
2018-11-03T01:06:54.975Z,9.22
2018-11-03T01:08:04.686Z,9.15
2018-11-03T01:09:14.656Z,9.22
2018-11-03T01:10:24.104Z,9.13
2018-11-03T01:11:34.080Z,9.13
2018-11-03T01:12:43.807Z,9.12
2018-11-03T01:13:54.402Z,9.16
2018-11-03T01:15:05.491Z,9.03
2018-11-03T01:16:14.932Z,9.05
2018-11-03T01:17:24.914Z,9.09
2018-11-03T01:18:34.927Z,8.99
2018-11-03T01:19:44.915Z,8.96
2018-11-03T01:20:54.916Z,9.02
2018-11-03T01:22:04.898Z,8.99
2018-11-03T01:23:14.629Z,8.97
2018-11-03T01:24:24.602Z,8.9
2018-11-03T01:25:34.312Z,8.89
2018-11-03T01:26:43.807Z,8.9
2018-11-03T01:27:53.514Z,8.99
2018-11-03T01:29:02.981Z,8.96
2018-11-03T01:30:12.963Z,8.97
2018-11-03T01:31:22.756Z,8.93
2018-11-03T01:32:32.715Z,8.92
2018-11-03T01:33:43.123Z,8.96
2018-11-03T01:34:52.838Z,8.89
2018-11-03T01:36:02.028Z,8.96
2018-11-03T01:37:12.292Z,8.92
2018-11-03T01:38:23.113Z,8.95
2018-11-03T01:39:33.232Z,8.87
2018-11-03T01:40:42.993Z,8.92
2018-11-03T01:41:52.501Z,8.87
2018-11-03T01:43:02.223Z,8.92
2018-11-03T01:44:11.926Z,8.87
2018-11-03T01:45:21.921Z,8.92
2018-11-03T01:46:31.354Z,8.89
2018-11-03T01:47:41.085Z,8.87
2018-11-03T01:48:50.806Z,8.95
2018-11-03T01:50:00.266Z,8.99
2018-11-03T01:51:10.276Z,8.95
2018-11-03T01:52:20.262Z,8.9
2018-11-03T01:53:30.263Z,8.82
2018-11-03T01:54:40.243Z,8.82
2018-11-03T01:55:49.694Z,8.93
2018-11-03T01:56:58.861Z,8.99
2018-11-03T01:58:08.592Z,8.86
2018-11-03T01:59:18.036Z,8.9
2018-11-03T02:00:28.043Z,8.89
2018-11-03T02:01:38.028Z,8.89
2018-11-03T02:02:48.664Z,8.86
2018-11-03T02:03:58.537Z,8.86
2018-11-03T02:05:07.984Z,8.96
2018-11-03T02:06:17.706Z,8.9
2018-11-03T02:07:27.697Z,8.89
2018-11-03T02:08:37.147Z,8.86
2018-11-03T02:09:46.859Z,8.87
2018-11-03T02:10:56.833Z,8.9
2018-11-03T02:12:06.808Z,8.89
2018-11-03T02:13:16.515Z,8.89
2018-11-03T02:14:26.487Z,8.87
2018-11-03T02:15:36.215Z,8.86
2018-11-03T02:16:45.937Z,8.84
2018-11-03T02:17:55.910Z,8.87
2018-11-03T02:19:05.886Z,8.89
2018-11-03T02:20:15.579Z,8.84
2018-11-03T02:21:25.037Z,8.84
2018-11-03T02:22:35.041Z,8.89
2018-11-03T02:23:44.789Z,8.84
2018-11-03T02:24:54.981Z,8.89
2018-11-03T02:26:05.403Z,8.84
2018-11-03T02:27:15.145Z,8.89
2018-11-03T02:28:24.592Z,8.9
2018-11-03T02:29:34.569Z,8.86
2018-11-03T02:30:44.572Z,8.84
2018-11-03T02:31:54.618Z,8.84
2018-11-03T02:33:04.334Z,8.87
2018-11-03T02:34:13.789Z,8.93
2018-11-03T02:35:23.515Z,8.89
2018-11-03T02:36:32.721Z,8.86
2018-11-03T02:37:42.704Z,8.86
2018-11-03T02:38:52.430Z,8.81
2018-11-03T02:40:02.142Z,8.87
2018-11-03T02:41:12.108Z,8.86
2018-11-03T02:42:21.277Z,8.86
2018-11-03T02:43:31.244Z,8.81
2018-11-03T02:44:40.966Z,8.81
2018-11-03T02:45:50.416Z,8.87
2018-11-03T02:47:00.402Z,8.79
2018-11-03T02:48:10.183Z,8.82
2018-11-03T02:49:19.848Z,8.82
2018-11-03T02:50:30.638Z,8.74
2018-11-03T02:51:40.656Z,8.79
2018-11-03T02:52:50.380Z,8.87
2018-11-03T02:54:00.092Z,8.87
2018-11-03T02:55:09.838Z,8.86
2018-11-03T02:56:19.557Z,8.79
2018-11-03T02:57:29.535Z,8.81
2018-11-03T02:58:39.000Z,8.81
2018-11-03T02:59:48.989Z,8.82
2018-11-03T03:00:58.465Z,8.79
2018-11-03T03:02:08.483Z,8.78
2018-11-03T03:03:18.537Z,8.82
2018-11-03T03:04:28.554Z,8.79
2018-11-03T03:05:38.279Z,8.75
2018-11-03T03:06:47.726Z,8.78
2018-11-03T03:07:57.690Z,8.84
2018-11-03T03:09:07.418Z,8.79
2018-11-03T03:10:17.167Z,8.78
2018-11-03T03:11:27.122Z,8.84
2018-11-03T03:12:37.201Z,8.75
2018-11-03T03:13:47.346Z,8.82
2018-11-03T03:14:57.861Z,8.82
2018-11-03T03:16:07.318Z,8.86
2018-11-03T03:17:17.289Z,8.82
2018-11-03T03:18:27.004Z,8.87
2018-11-03T03:19:36.981Z,8.86
2018-11-03T03:20:46.959Z,8.86
2018-11-03T03:21:56.688Z,8.86
2018-11-03T03:23:06.448Z,8.9
2018-11-03T03:24:16.419Z,8.81
2018-11-03T03:25:26.128Z,8.86
2018-11-03T03:26:35.580Z,8.84
2018-11-03T03:27:45.315Z,8.78
2018-11-03T03:28:54.851Z,8.78
2018-11-03T03:30:04.049Z,8.86
2018-11-03T03:31:13.895Z,8.75
2018-11-03T03:32:23.616Z,8.81
2018-11-03T03:33:33.320Z,8.78
2018-11-03T03:34:43.290Z,8.71
2018-11-03T03:35:53.295Z,8.78
2018-11-03T03:37:03.283Z,8.81
2018-11-03T03:38:13.887Z,8.84
2018-11-03T03:39:24.292Z,8.77
2018-11-03T03:40:34.325Z,8.79
2018-11-03T03:41:44.292Z,8.81
2018-11-03T03:42:54.285Z,8.84
2018-11-03T03:44:04.270Z,8.78
2018-11-03T03:45:13.978Z,8.84
2018-11-03T03:46:23.154Z,8.79
2018-11-03T03:47:33.154Z,8.82
2018-11-03T03:48:43.126Z,8.86
2018-11-03T03:49:52.853Z,8.81
2018-11-03T03:51:02.572Z,8.81
2018-11-03T03:52:12.318Z,8.86
2018-11-03T03:53:22.300Z,8.79
2018-11-03T03:54:32.276Z,8.84
2018-11-03T03:55:42.020Z,8.9
2018-11-03T03:56:51.784Z,8.84
2018-11-03T03:58:01.434Z,8.84
2018-11-03T03:59:11.148Z,8.84
2018-11-03T04:00:20.879Z,8.84
2018-11-03T04:01:30.887Z,8.82
2018-11-03T04:02:40.351Z,8.79
2018-11-03T04:03:50.576Z,8.79
2018-11-03T04:05:01.116Z,8.81
2018-11-03T04:06:11.077Z,8.84
2018-11-03T04:07:21.054Z,8.79
2018-11-03T04:08:30.807Z,8.89
2018-11-03T04:09:40.248Z,8.87
2018-11-03T04:10:49.959Z,8.87
2018-11-03T04:11:59.947Z,8.92
2018-11-03T04:13:09.671Z,8.86
2018-11-03T04:14:19.119Z,8.82
2018-11-03T04:15:29.090Z,8.87
2018-11-03T04:16:39.107Z,8.81
2018-11-03T04:17:48.578Z,8.82
2018-11-03T04:18:58.298Z,8.84
2018-11-03T04:20:08.015Z,8.86
2018-11-03T04:21:17.824Z,8.89
2018-11-03T04:22:27.805Z,8.86
2018-11-03T04:23:37.524Z,8.89
2018-11-03T04:24:47.498Z,8.84
2018-11-03T04:25:57.215Z,8.87
2018-11-03T04:27:06.967Z,8.87
2018-11-03T04:28:16.887Z,8.86
2018-11-03T04:29:27.722Z,8.86
2018-11-03T04:30:38.365Z,8.84
2018-11-03T04:31:48.212Z,8.86
2018-11-03T04:32:58.199Z,8.84
2018-11-03T04:34:08.197Z,8.86
2018-11-03T04:35:17.921Z,8.84
2018-11-03T04:36:27.892Z,8.82
2018-11-03T04:37:37.383Z,8.81
2018-11-03T04:38:46.566Z,8.79
2018-11-03T04:39:56.286Z,8.77
2018-11-03T04:41:05.467Z,8.79
2018-11-03T04:42:14.921Z,8.84
2018-11-03T04:43:24.896Z,8.87
2018-11-03T04:44:34.622Z,8.87
2018-11-03T04:45:44.501Z,8.96
2018-11-03T04:46:54.212Z,8.93
2018-11-03T04:48:04.207Z,8.9
2018-11-03T04:49:14.189Z,8.86
2018-11-03T04:50:24.182Z,9.02
2018-11-03T04:51:33.644Z,9.02
2018-11-03T04:52:43.374Z,8.97
2018-11-03T04:53:53.528Z,9.03
2018-11-03T04:55:04.456Z,9.02
2018-11-03T04:56:14.937Z,8.97
2018-11-03T04:57:24.115Z,9
2018-11-03T04:58:33.571Z,9.05
2018-11-03T04:59:43.291Z,9.08
2018-11-03T05:00:53.289Z,9
2018-11-03T05:02:02.744Z,9
2018-11-03T05:03:12.470Z,8.89
2018-11-03T05:04:22.470Z,8.96
2018-11-03T05:05:32.517Z,9.02
2018-11-03T05:06:42.043Z,8.95
2018-11-03T05:07:51.767Z,8.82
2018-11-03T05:09:01.464Z,8.84
2018-11-03T05:10:11.299Z,8.84
2018-11-03T05:11:20.810Z,8.75
2018-11-03T05:12:29.992Z,8.77
2018-11-03T05:13:39.764Z,8.68
2018-11-03T05:14:49.786Z,8.74
2018-11-03T05:15:59.782Z,8.74
2018-11-03T05:17:09.482Z,8.71
2018-11-03T05:18:19.225Z,8.71
2018-11-03T05:19:29.693Z,8.68
2018-11-03T05:20:40.231Z,8.63
2018-11-03T05:21:49.948Z,8.68
2018-11-03T05:22:59.149Z,8.69
2018-11-03T05:24:08.603Z,8.71
2018-11-03T05:25:18.300Z,8.66
2018-11-03T05:26:28.039Z,8.69
2018-11-03T05:27:37.806Z,8.72
2018-11-03T05:28:47.529Z,8.69
2018-11-03T05:29:56.975Z,8.81
2018-11-03T05:31:07.294Z,8.77
2018-11-03T05:32:17.265Z,8.68
2018-11-03T05:33:27.243Z,8.78
2018-11-03T05:34:37.243Z,8.77
2018-11-03T05:35:46.956Z,8.74
2018-11-03T05:36:56.665Z,8.75
2018-11-03T05:38:06.371Z,8.75
2018-11-03T05:39:16.106Z,8.82
2018-11-03T05:40:25.813Z,8.71
2018-11-03T05:41:36.139Z,8.69
2018-11-03T05:42:46.090Z,8.71
2018-11-03T05:43:56.618Z,8.72
2018-11-03T05:45:06.423Z,8.64
2018-11-03T05:46:15.972Z,8.66
2018-11-03T05:47:25.823Z,8.6
2018-11-03T05:48:35.563Z,8.61
2018-11-03T05:49:45.014Z,8.63
2018-11-03T05:50:54.466Z,8.66
2018-11-03T05:52:04.425Z,8.56
2018-11-03T05:53:14.156Z,8.6
2018-11-03T05:54:24.145Z,8.6
2018-11-03T05:55:34.139Z,8.49
2018-11-03T05:56:44.180Z,8.52
2018-11-03T05:57:54.209Z,8.5
2018-11-03T05:59:04.001Z,8.5
2018-11-03T06:00:13.870Z,8.5
2018-11-03T06:01:23.591Z,8.39
2018-11-03T06:02:33.310Z,8.41
2018-11-03T06:03:43.013Z,8.44
2018-11-03T06:04:53.052Z,8.39
2018-11-03T06:06:03.968Z,8.54
2018-11-03T06:07:14.206Z,8.52
2018-11-03T06:08:23.927Z,8.52
2018-11-03T06:09:33.896Z,8.52
2018-11-03T06:10:43.326Z,8.42
2018-11-03T06:11:52.523Z,8.5
2018-11-03T06:13:02.268Z,8.45
2018-11-03T06:14:11.722Z,8.59
2018-11-03T06:15:21.965Z,8.56
2018-11-03T06:16:32.146Z,8.45
2018-11-03T06:17:41.890Z,8.54
2018-11-03T06:18:51.616Z,8.52
2018-11-03T06:20:00.808Z,8.6
2018-11-03T06:21:10.817Z,8.54
2018-11-03T06:22:20.362Z,8.5
2018-11-03T06:23:30.031Z,8.46
2018-11-03T06:24:39.969Z,8.44
2018-11-03T06:25:49.708Z,8.52
2018-11-03T06:26:59.690Z,8.49
2018-11-03T06:28:10.167Z,8.41
2018-11-03T06:29:20.253Z,8.5
2018-11-03T06:30:30.664Z,8.53
2018-11-03T06:31:40.775Z,8.46
2018-11-03T06:32:49.979Z,8.5
2018-11-03T06:33:59.746Z,8.53
2018-11-03T06:35:09.351Z,8.49
2018-11-03T06:36:19.225Z,8.39
2018-11-03T06:37:28.969Z,8.45
2018-11-03T06:38:38.682Z,8.54
2018-11-03T06:39:48.221Z,8.46
2018-11-03T06:40:57.932Z,8.53
2018-11-03T06:42:07.708Z,8.46
2018-11-03T06:43:17.704Z,8.39
2018-11-03T06:44:27.709Z,8.52
2018-11-03T06:45:37.680Z,8.53
2018-11-03T06:46:48.071Z,8.5
2018-11-03T06:47:57.810Z,8.5
2018-11-03T06:49:07.264Z,8.66
2018-11-03T06:50:16.744Z,8.66
2018-11-03T06:51:26.718Z,8.56
2018-11-03T06:52:36.419Z,8.63
2018-11-03T06:53:46.261Z,8.69
2018-11-03T06:54:56.591Z,8.61
2018-11-03T06:56:07.042Z,8.61
2018-11-03T06:57:16.759Z,8.68
2018-11-03T06:58:26.472Z,8.68
2018-11-03T06:59:35.919Z,8.66
2018-11-03T07:00:45.659Z,8.66
2018-11-03T07:01:55.690Z,8.63
2018-11-03T07:03:05.690Z,8.68
2018-11-03T07:04:15.693Z,8.69
2018-11-03T07:05:25.885Z,8.64
2018-11-03T07:06:35.369Z,8.68
2018-11-03T07:07:44.822Z,8.68
2018-11-03T07:08:54.004Z,8.74
2018-11-03T07:10:03.732Z,8.66
2018-11-03T07:11:13.814Z,8.71
2018-11-03T07:12:24.439Z,8.79
2018-11-03T07:13:35.288Z,8.72
2018-11-03T07:14:44.728Z,8.81
2018-11-03T07:15:54.709Z,8.9
2018-11-03T07:17:04.766Z,8.71
2018-11-03T07:18:15.597Z,8.82
2018-11-03T07:19:26.048Z,8.81
2018-11-03T07:20:35.604Z,8.84
2018-11-03T07:21:46.048Z,8.81
2018-11-03T07:22:56.053Z,8.95
2018-11-03T07:24:06.037Z,8.93
2018-11-03T07:25:16.019Z,8.89
2018-11-03T07:26:25.725Z,8.96
2018-11-03T07:27:35.704Z,8.95
2018-11-03T07:28:45.681Z,9
2018-11-03T07:29:56.077Z,9.11
2018-11-03T07:31:06.090Z,9.18
2018-11-03T07:32:15.526Z,9.19
2018-11-03T07:33:25.532Z,9.26
2018-11-03T07:34:35.249Z,9.3
2018-11-03T07:35:44.958Z,9.34
2018-11-03T07:36:54.950Z,9.31
2018-11-03T07:38:04.702Z,9.37
2018-11-03T07:39:14.741Z,9.4
2018-11-03T07:40:24.646Z,9.36
2018-11-03T07:41:34.751Z,9.37
2018-11-03T07:42:45.140Z,9.4
2018-11-03T07:43:55.810Z,9.42
2018-11-03T07:45:06.393Z,9.45
2018-11-03T07:46:16.662Z,9.49
2018-11-03T07:47:26.378Z,9.59
2018-11-03T07:48:36.496Z,9.54
2018-11-03T07:49:46.035Z,9.58
2018-11-03T07:50:55.488Z,9.55
2018-11-03T07:52:05.189Z,9.56
2018-11-03T07:53:14.910Z,9.69
2018-11-03T07:54:24.784Z,9.63
2018-11-03T07:55:34.649Z,9.66
2018-11-03T07:56:44.110Z,9.72
2018-11-03T07:57:54.136Z,9.64
2018-11-03T07:59:04.242Z,9.55
2018-11-03T08:00:14.016Z,9.62
2018-11-03T08:01:23.685Z,9.55
2018-11-03T08:02:33.672Z,9.59
2018-11-03T08:03:43.401Z,9.67
2018-11-03T08:04:52.856Z,9.64
2018-11-03T08:06:02.568Z,9.7
2018-11-03T08:07:12.024Z,9.69
2018-11-03T08:08:21.480Z,9.69
2018-11-03T08:09:30.918Z,9.84
2018-11-03T08:10:40.919Z,9.81
2018-11-03T08:11:51.551Z,9.87
2018-11-03T08:13:01.942Z,9.91
2018-11-03T08:14:11.669Z,9.8
2018-11-03T08:15:21.412Z,9.81
2018-11-03T08:16:31.143Z,9.85
2018-11-03T08:17:40.599Z,9.8
2018-11-03T08:18:50.327Z,9.84
2018-11-03T08:19:59.784Z,9.87
2018-11-03T08:21:09.242Z,9.82
2018-11-03T08:22:19.235Z,9.85
2018-11-03T08:23:29.208Z,9.95
2018-11-03T08:24:38.686Z,9.95
2018-11-03T08:25:48.395Z,9.97
2018-11-03T08:26:58.385Z,10.09
2018-11-03T08:28:08.392Z,10.21
2018-11-03T08:29:17.853Z,10.28
2018-11-03T08:30:27.310Z,10.38
2018-11-03T08:31:37.471Z,10.41
2018-11-03T08:32:47.763Z,10.49
2018-11-03T08:33:57.485Z,10.58
2018-11-03T08:35:07.128Z,10.61
2018-11-03T08:36:17.824Z,10.62
2018-11-03T08:37:27.519Z,10.72
2018-11-03T08:38:37.246Z,10.86
2018-11-03T08:39:46.927Z,10.75
2018-11-03T08:40:57.023Z,10.86
2018-11-03T08:42:07.009Z,10.9
2018-11-03T08:43:16.193Z,10.98
2018-11-03T08:44:26.204Z,10.98
2018-11-03T08:45:35.672Z,11.16
2018-11-03T08:46:45.374Z,11.16
2018-11-03T08:47:55.434Z,11.18
2018-11-03T08:49:05.248Z,11.23
2018-11-03T08:50:15.243Z,11.19
2018-11-03T08:51:24.976Z,11.22
2018-11-03T08:52:34.997Z,11.19
2018-11-03T08:53:44.197Z,11.2
2018-11-03T08:54:53.648Z,11.18
2018-11-03T08:56:03.099Z,11.31
2018-11-03T08:57:13.076Z,11.31
2018-11-03T08:58:23.125Z,11.4
2018-11-03T08:59:34.454Z,11.48
2018-11-03T09:00:44.209Z,11.53
2018-11-03T09:01:53.931Z,11.45
2018-11-03T09:03:03.398Z,11.62
2018-11-03T09:04:12.616Z,11.63
2018-11-03T09:05:22.374Z,11.71
2018-11-03T09:06:32.402Z,11.8
2018-11-03T09:07:42.123Z,11.86
2018-11-03T09:08:51.651Z,11.96
2018-11-03T09:10:01.401Z,11.99
2018-11-03T09:11:11.417Z,12.07
2018-11-03T09:12:20.896Z,12.08
2018-11-03T09:13:30.365Z,12.15
2018-11-03T09:14:39.954Z,12.05
2018-11-03T09:15:50.259Z,12.21
2018-11-03T09:17:00.247Z,12.23
2018-11-03T09:18:09.964Z,12.28
2018-11-03T09:19:19.434Z,12.23
2018-11-03T09:20:29.161Z,12
2018-11-03T09:21:39.304Z,11.91
2018-11-03T09:22:50.267Z,11.8
2018-11-03T09:23:59.719Z,11.7
2018-11-03T09:25:09.184Z,11.74
2018-11-03T09:26:19.191Z,11.76
2018-11-03T09:27:28.637Z,11.73
2018-11-03T09:28:38.358Z,11.77
2018-11-03T09:29:47.539Z,11.71
2018-11-03T09:30:57.507Z,11.65
2018-11-03T09:32:07.132Z,11.7
2018-11-03T09:33:17.115Z,11.7
2018-11-03T09:34:27.132Z,11.78
2018-11-03T09:35:37.009Z,11.76
2018-11-03T09:36:46.783Z,11.88
2018-11-03T09:37:56.540Z,11.95
2018-11-03T09:39:06.227Z,11.89
2018-11-03T09:40:16.316Z,11.91
2018-11-03T09:41:26.053Z,11.99
2018-11-03T09:42:36.023Z,12.17
2018-11-03T09:43:45.737Z,12.11
2018-11-03T09:44:55.842Z,12.29
2018-11-03T09:46:06.746Z,12.37
2018-11-03T09:47:17.240Z,12.48
2018-11-03T09:48:26.962Z,12.47
2018-11-03T09:49:36.747Z,12.55
2018-11-03T09:50:47.235Z,12.73
2018-11-03T09:51:57.506Z,12.73
2018-11-03T09:53:06.423Z,12.84
2018-11-03T09:54:15.631Z,12.95
2018-11-03T09:55:25.611Z,13.02
2018-11-03T09:56:35.807Z,13.24
2018-11-03T09:57:45.807Z,13.24
2018-11-03T09:58:55.578Z,13.39
2018-11-03T10:00:05.054Z,13.47
2018-11-03T10:01:15.035Z,13.65
2018-11-03T10:02:24.499Z,13.64
2018-11-03T10:03:34.278Z,13.64
2018-11-03T10:04:43.723Z,13.71
2018-11-03T10:05:53.192Z,13.89
2018-11-03T10:07:02.896Z,13.97
2018-11-03T10:08:13.171Z,14
2018-11-03T10:09:23.430Z,14.11
2018-11-03T10:10:33.870Z,14.07
2018-11-03T10:11:43.323Z,14.07
2018-11-03T10:12:53.309Z,14.18
2018-11-03T10:14:03.029Z,14.33
2018-11-03T10:15:12.774Z,14.55
2018-11-03T10:16:22.212Z,14.51
2018-11-03T10:17:31.987Z,14.45
2018-11-03T10:18:41.462Z,14.62
2018-11-03T10:19:51.176Z,14.74
2018-11-03T10:21:00.873Z,14.9
2018-11-03T10:22:10.708Z,15.07
2018-11-03T10:23:20.548Z,15.27
2018-11-03T10:24:30.575Z,15.39
2018-11-03T10:25:40.307Z,15.54
2018-11-03T10:26:50.280Z,15.69
2018-11-03T10:28:00.336Z,15.76
2018-11-03T10:29:10.050Z,15.96
2018-11-03T10:30:19.785Z,16
2018-11-03T10:31:29.568Z,16.28
2018-11-03T10:32:39.019Z,16.41
2018-11-03T10:33:49.920Z,16.39
2018-11-03T10:35:00.391Z,16.65
2018-11-03T10:36:09.854Z,16.76
2018-11-03T10:37:19.851Z,16.87
2018-11-03T10:38:29.623Z,17.07
2018-11-03T10:39:39.602Z,17.12
2018-11-03T10:40:49.400Z,16.83
2018-11-03T10:41:58.896Z,16.76
2018-11-03T10:43:08.643Z,16.64
2018-11-03T10:44:18.627Z,16.58
2018-11-03T10:45:28.349Z,16.65
2018-11-03T10:46:38.321Z,16.55
2018-11-03T10:47:48.043Z,16.55
2018-11-03T10:48:57.769Z,16.57
2018-11-03T10:50:07.227Z,16.74
2018-11-03T10:51:16.939Z,16.65
2018-11-03T10:52:26.663Z,16.74
2018-11-03T10:53:36.952Z,16.66
2018-11-03T10:54:46.664Z,16.65
2018-11-03T10:55:56.908Z,16.37
2018-11-03T10:57:07.191Z,16.36
2018-11-03T10:58:17.086Z,16.39
2018-11-03T10:59:27.050Z,16.43
2018-11-03T11:00:36.795Z,16.34
2018-11-03T11:01:46.824Z,16.5
2018-11-03T11:02:56.287Z,16.41
2018-11-03T11:04:06.301Z,16.43
2018-11-03T11:05:16.330Z,16.44
2018-11-03T11:06:26.092Z,16.47
2018-11-03T11:07:35.292Z,16.46
2018-11-03T11:08:45.033Z,16.41
2018-11-03T11:09:54.512Z,16.34
2018-11-03T11:11:04.278Z,16.43
2018-11-03T11:12:14.267Z,16.49
2018-11-03T11:13:23.988Z,16.31
2018-11-03T11:14:34.068Z,16.22
2018-11-03T11:15:43.793Z,16.26
2018-11-03T11:16:53.585Z,16.16
2018-11-03T11:18:03.947Z,16.25
2018-11-03T11:19:14.280Z,16.29
2018-11-03T11:20:24.355Z,16.25
2018-11-03T11:21:34.717Z,16.1
2018-11-03T11:22:44.429Z,16.16
2018-11-03T11:23:54.613Z,16.16
2018-11-03T11:25:05.736Z,16.16
2018-11-03T11:26:15.331Z,16.06
2018-11-03T11:27:24.799Z,16.09
2018-11-03T11:28:34.262Z,16.13
2018-11-03T11:29:44.260Z,16.21
2018-11-03T11:30:53.721Z,16.26
2018-11-03T11:32:03.176Z,16.26
2018-11-03T11:33:13.027Z,16.32
2018-11-03T11:34:22.766Z,16.36
2018-11-03T11:35:32.460Z,16.44
2018-11-03T11:36:41.665Z,16.46
2018-11-03T11:37:50.865Z,16.61
2018-11-03T11:39:00.638Z,16.8
2018-11-03T11:40:10.113Z,16.92
2018-11-03T11:41:19.049Z,17.12
2018-11-03T11:42:29.066Z,17.24
2018-11-03T11:43:38.803Z,17.39
2018-11-03T11:44:48.932Z,17.68
2018-11-03T11:45:59.396Z,17.59
2018-11-03T11:47:09.382Z,17.68
2018-11-03T11:48:19.107Z,17.63
2018-11-03T11:49:28.891Z,17.68
2018-11-03T11:50:38.634Z,17.6
2018-11-03T11:51:48.364Z,17.65
2018-11-03T11:52:58.079Z,17.52
2018-11-03T11:54:08.109Z,17.24
2018-11-03T11:55:17.324Z,17.12
2018-11-03T11:56:27.352Z,17.04
2018-11-03T11:57:37.076Z,17.07
2018-11-03T11:58:47.106Z,17.17
2018-11-03T11:59:56.578Z,17.19
2018-11-03T12:01:06.619Z,17.19
2018-11-03T12:02:17.088Z,17.16
2018-11-03T12:03:27.403Z,17.2
2018-11-03T12:04:37.117Z,17.19
2018-11-03T12:05:46.835Z,17.05
2018-11-03T12:06:56.565Z,16.94
2018-11-03T12:08:06.295Z,16.86
2018-11-03T12:09:16.028Z,16.79
2018-11-03T12:10:26.048Z,16.59
2018-11-03T12:11:35.915Z,16.41
2018-11-03T12:12:46.111Z,16.44
2018-11-03T12:13:55.834Z,16.4
2018-11-03T12:15:05.326Z,16.46
2018-11-03T12:16:15.399Z,16.25
2018-11-03T12:17:25.626Z,16.06
2018-11-03T12:18:34.833Z,16.02
2018-11-03T12:19:44.840Z,15.99
2018-11-03T12:20:54.835Z,15.78
2018-11-03T12:22:04.631Z,15.78
2018-11-03T12:23:14.351Z,15.78
2018-11-03T12:24:24.395Z,15.62
2018-11-03T12:25:34.306Z,15.6
2018-11-03T12:26:44.307Z,15.62
2018-11-03T12:27:54.302Z,15.65
2018-11-03T12:29:04.016Z,15.7
2018-11-03T12:30:13.501Z,15.7
2018-11-03T12:31:23.255Z,15.73
2018-11-03T12:32:33.033Z,15.67
2018-11-03T12:33:43.355Z,15.55
2018-11-03T12:34:54.079Z,15.6
2018-11-03T12:36:04.758Z,15.57
2018-11-03T12:37:14.902Z,15.54
2018-11-03T12:38:24.892Z,15.6
2018-11-03T12:39:34.673Z,15.5
2018-11-03T12:40:44.158Z,15.54
2018-11-03T12:41:54.138Z,15.52
2018-11-03T12:43:04.151Z,15.41
2018-11-03T12:44:14.139Z,15.27
2018-11-03T12:45:24.129Z,15.3
2018-11-03T12:46:33.879Z,15.22
2018-11-03T12:47:43.882Z,15.12
2018-11-03T12:48:54.035Z,15.07
2018-11-03T12:50:03.756Z,15.04
2018-11-03T12:51:13.831Z,15.05
2018-11-03T12:52:23.830Z,15.07
2018-11-03T12:53:33.895Z,14.9
2018-11-03T12:54:43.587Z,14.93
2018-11-03T12:55:53.322Z,14.97
2018-11-03T12:57:02.780Z,14.94
2018-11-03T12:58:13.455Z,14.94
2018-11-03T12:59:24.048Z,14.99
2018-11-03T13:00:34.351Z,15
2018-11-03T13:01:44.338Z,15.1
2018-11-03T13:02:54.358Z,15.17
2018-11-03T13:04:03.840Z,15.02
2018-11-03T13:05:14.546Z,15.05
2018-11-03T13:06:25.152Z,15.14
2018-11-03T13:07:35.024Z,15.25
2018-11-03T13:08:44.631Z,15.27
2018-11-03T13:09:55.002Z,15.48
2018-11-03T13:11:04.564Z,15.63
2018-11-03T13:12:14.796Z,15.66
2018-11-03T13:13:24.870Z,15.75
2018-11-03T13:14:34.836Z,15.78
2018-11-03T13:15:44.665Z,15.78
2018-11-03T13:16:54.452Z,15.65
2018-11-03T13:18:04.427Z,15.51
2018-11-03T13:19:14.122Z,15.43
2018-11-03T13:20:23.837Z,15.47
2018-11-03T13:21:33.538Z,15.25
2018-11-03T13:22:43.614Z,15.25
2018-11-03T13:23:53.833Z,15.19
2018-11-03T13:25:03.275Z,15.18
2018-11-03T13:26:12.719Z,15.18
2018-11-03T13:27:22.161Z,15.19
2018-11-03T13:28:31.851Z,15.19
2018-11-03T13:29:41.548Z,15.22
2018-11-03T13:30:51.246Z,15.1
2018-11-03T13:32:01.207Z,15.08
2018-11-03T13:33:10.647Z,15.11
2018-11-03T13:34:20.340Z,15.1
2018-11-03T13:35:30.310Z,15.1
2018-11-03T13:36:39.738Z,15.15
2018-11-03T13:37:49.446Z,15.14
2018-11-03T13:38:59.190Z,15.11
2018-11-03T13:40:08.888Z,15.19
2018-11-03T13:41:18.587Z,15.37
2018-11-03T13:42:28.286Z,15.43
2018-11-03T13:43:38.264Z,15.48
2018-11-03T13:44:47.702Z,15.5
2018-11-03T13:45:57.651Z,15.5
2018-11-03T13:47:07.803Z,15.59
2018-11-03T13:48:17.966Z,15.59
2018-11-03T13:49:27.670Z,15.62
2018-11-03T13:50:37.380Z,15.72
2018-11-03T13:51:47.095Z,15.65
2018-11-03T13:52:56.532Z,15.55
2018-11-03T13:54:06.255Z,15.55
2018-11-03T13:55:15.965Z,15.52
2018-11-03T13:56:25.687Z,15.44
2018-11-03T13:57:34.858Z,15.37
2018-11-03T13:58:44.546Z,15.27
2018-11-03T13:59:53.990Z,15.36
2018-11-03T14:01:03.427Z,15.33
2018-11-03T14:02:13.393Z,15.26
2018-11-03T14:03:23.360Z,15.17
2018-11-03T14:04:32.807Z,15.12
2018-11-03T14:05:42.503Z,15.04
2018-11-03T14:06:52.215Z,14.93
2018-11-03T14:08:01.907Z,15
2018-11-03T14:09:11.597Z,14.99
2018-11-03T14:10:21.558Z,14.96
2018-11-03T14:11:31.252Z,15.02
2018-11-03T14:12:41.200Z,15.02
2018-11-03T14:13:50.930Z,15
2018-11-03T14:15:00.880Z,15.04
2018-11-03T14:16:10.853Z,15.12
2018-11-03T14:17:20.091Z,15.12
2018-11-03T14:18:29.362Z,15.18
2018-11-03T14:19:39.046Z,15.17
2018-11-03T14:20:49.004Z,15.14
2018-11-03T14:21:58.954Z,15.11
2018-11-03T14:23:08.932Z,14.99
2018-11-03T14:24:18.508Z,14.78
2018-11-03T14:25:27.940Z,14.61
2018-11-03T14:26:37.394Z,14.61
2018-11-03T14:27:47.767Z,14.48
2018-11-03T14:28:57.605Z,14.38
2018-11-03T14:30:07.593Z,14.25
2018-11-03T14:31:17.283Z,14.2
2018-11-03T14:32:26.995Z,14.18
2018-11-03T14:33:36.670Z,14.15
2018-11-03T14:34:46.622Z,14.11
2018-11-03T14:35:56.304Z,14.13
2018-11-03T14:37:05.489Z,14.15
2018-11-03T14:38:15.200Z,14.19
2018-11-03T14:39:24.942Z,14.19
2018-11-03T14:40:34.375Z,14.18
2018-11-03T14:41:43.816Z,14.28
2018-11-03T14:42:53.516Z,14.3
2018-11-03T14:44:03.465Z,14.3
2018-11-03T14:45:13.258Z,14.28
2018-11-03T14:46:23.173Z,14.3
2018-11-03T14:47:32.884Z,14.16
2018-11-03T14:48:42.579Z,14.2
2018-11-03T14:49:52.548Z,14.13
2018-11-03T14:51:02.306Z,14.23
2018-11-03T14:52:12.765Z,14.15
2018-11-03T14:53:22.846Z,14.18
2018-11-03T14:54:32.779Z,14.16
2018-11-03T14:55:42.735Z,14.13
2018-11-03T14:56:52.818Z,14.16
2018-11-03T14:58:02.524Z,14.08
2018-11-03T14:59:12.481Z,14.08
2018-11-03T15:00:21.658Z,14.01
2018-11-03T15:01:31.620Z,14.05
2018-11-03T15:02:41.572Z,13.91
2018-11-03T15:03:51.012Z,13.76
2018-11-03T15:05:00.466Z,13.73
2018-11-03T15:06:10.428Z,13.68
2018-11-03T15:07:20.131Z,13.58
2018-11-03T15:08:29.942Z,13.55
2018-11-03T15:09:40.329Z,13.57
2018-11-03T15:10:49.795Z,13.46
2018-11-03T15:11:59.234Z,13.42
2018-11-03T15:13:08.667Z,13.36
2018-11-03T15:14:19.296Z,13.45
2018-11-03T15:15:30.125Z,13.27
2018-11-03T15:16:40.083Z,13.36
2018-11-03T15:17:49.262Z,13.21
2018-11-03T15:18:59.006Z,13.11